Terminal Aerodrome Forecast
Issued by NWS

Home | Current Version | Previous Version | Text Only | Print | Product List | Glossary On
Versions: 1 2 3 4 5 6 7 8 9 10 11 12 13 14 15 16 17 18 19 20 21 22
000
FTUS46 KSEW 010521
TAFSEA
TAF
KSEA 010521Z 0106/0212 20009KT P6SM SCT025 SCT100 BKN200
      TEMPO 0108/0112 BKN025
     FM011200 19009KT P6SM BKN025 BKN080
     FM012100 18010KT P6SM -RA BKN025 OVC050
     FM020800 18009KT P6SM -SHRA BKN022 BKN045=

USA.gov is the U.S. government's official web portal to all federal, state and local government web resources and services.